Time;durP1;ratioP1;P1;durP2;ratioP2;P2;SDS_P1;SDS_P2;PMS_P1;PMS_P2;Temp;Humidity;BMP_temperature;BMP_pressure;BME280_temperature;BME280_humidity;BME280_pressure;Samples;Min_cycle;Max_cycle;Signal;HPM_P1;HPM_P2
2024/01/08 00:01:59;;;;;;;0.00;0.00;;;;;;;;;;5052628;28;20470;-84
2024/01/08 00:04:25;;;;;;;0.00;0.00;;;;;;;;;;5052253;28;20102;-81
2024/01/08 00:06:51;;;;;;;0.00;0.00;;;;;;;;;;5036075;28;20033;-83
2024/01/08 00:09:17;;;;;;;0.00;0.00;;;;;;;;;;5053549;28;20479;-84
2024/01/08 00:11:43;;;;;;;0.00;0.00;;;;;;;;;;5052600;28;20027;-84
2024/01/08 00:14:08;;;;;;;0.00;0.00;;;;;;;;;;5035910;28;20455;-81
2024/01/08 00:16:35;;;;;;;0.00;0.00;;;;;;;;;;5035925;28;20036;-84
2024/01/08 00:19:00;;;;;;;0.00;0.00;;;;;;;;;;5035593;28;20390;-83
2024/01/08 00:21:27;;;;;;;0.00;0.00;;;;;;;;;;5052326;28;20029;-84
2024/01/08 00:23:52;;;;;;;0.00;0.00;;;;;;;;;;5052332;28;20091;-84
2024/01/08 00:26:18;;;;;;;0.00;0.00;;;;;;;;;;5052663;28;20462;-84
2024/01/08 00:28:45;;;;;;;0.00;0.00;;;;;;;;;;5019404;28;20025;-84
2024/01/08 00:31:10;;;;;;;0.00;0.00;;;;;;;;;;5035965;28;20044;-84
2024/01/08 00:33:36;;;;;;;0.00;0.00;;;;;;;;;;5052011;28;20463;-82
2024/01/08 00:36:01;;;;;;;0.00;0.00;;;;;;;;;;5021123;28;20021;-83
2024/01/08 00:38:27;;;;;;;0.00;0.00;;;;;;;;;;5039585;28;20029;-83
2024/01/08 00:40:52;;;;;;;0.00;0.00;;;;;;;;;;5023148;28;20029;-83
2024/01/08 00:43:18;;;;;;;0.00;0.00;;;;;;;;;;5055438;28;20360;-83
2024/01/08 00:45:43;;;;;;;0.00;0.00;;;;;;;;;;5039326;28;20458;-83
2024/01/08 00:48:09;;;;;;;0.00;0.00;;;;;;;;;;5056872;28;20466;-83
2024/01/08 00:50:34;;;;;;;0.00;0.00;;;;;;;;;;5056015;28;20076;-83
2024/01/08 00:53:00;;;;;;;0.00;0.00;;;;;;;;;;5055923;28;20041;-83
2024/01/08 00:55:25;;;;;;;0.00;0.00;;;;;;;;;;5022763;28;20063;-83
2024/01/08 00:57:51;;;;;;;0.00;0.00;;;;;;;;;;5039464;28;20421;-83
2024/01/08 01:00:17;;;;;;;0.00;0.00;;;;;;;;;;5022776;28;20123;-83
2024/01/08 01:02:42;;;;;;;0.00;0.00;;;;;;;;;;5055189;28;20135;-83
2024/01/08 01:05:08;;;;;;;0.00;0.00;;;;;;;;;;5055727;28;20029;-83
2024/01/08 01:07:33;;;;;;;0.00;0.00;;;;;;;;;;5055301;28;20056;-83
2024/01/08 01:09:59;;;;;;;0.00;0.00;;;;;;;;;;5039019;28;20084;-83
2024/01/08 01:12:24;;;;;;;0.00;0.00;;;;;;;;;;5039105;28;20090;-83
2024/01/08 01:14:50;;;;;;;0.00;0.00;;;;;;;;;;5038798;28;20087;-83
2024/01/08 01:17:18;;;;;;;0.00;0.00;;;;;;;;;;5038674;28;20522;-83
2024/01/08 01:19:43;;;;;;;0.00;0.00;;;;;;;;;;5055588;28;20029;-82
2024/01/08 01:22:09;;;;;;;0.00;0.00;;;;;;;;;;5038740;28;20094;-83
2024/01/08 01:24:34;;;;;;;0.00;0.00;;;;;;;;;;5022568;28;20025;-83
2024/01/08 01:27:00;;;;;;;0.00;0.00;;;;;;;;;;5055115;28;20025;-83
2024/01/08 01:29:25;;;;;;;0.00;0.00;;;;;;;;;;5038565;28;20021;-83
2024/01/08 01:31:51;;;;;;;0.00;0.00;;;;;;;;;;5038449;28;20063;-82
2024/01/08 01:34:19;;;;;;;0.00;0.00;;;;;;;;;;5056262;28;20052;-83
2024/01/08 01:36:47;;;;;;;0.00;0.00;;;;;;;;;;5038541;28;20020;-83
2024/01/08 01:39:12;;;;;;;0.00;0.00;;;;;;;;;;5038629;28;20104;-82
2024/01/08 01:41:38;;;;;;;0.00;0.00;;;;;;;;;;5038430;28;20068;-83
2024/01/08 01:44:03;;;;;;;0.00;0.00;;;;;;;;;;5054147;28;20032;-84
2024/01/08 01:46:48;;;;;;;0.00;0.00;;;;;;;;;;5037578;28;20471;-83
2024/01/08 01:49:16;;;;;;;0.00;0.00;;;;;;;;;;5038439;28;20025;-83
2024/01/08 01:51:42;;;;;;;0.00;0.00;;;;;;;;;;5038350;28;20029;-82
2024/01/08 01:54:08;;;;;;;0.00;0.00;;;;;;;;;;5021603;28;20025;-83
2024/01/08 01:56:33;;;;;;;0.00;0.00;;;;;;;;;;5037898;28;20453;-83
2024/01/08 01:58:59;;;;;;;0.00;0.00;;;;;;;;;;5021626;28;20136;-82
2024/01/08 02:01:25;;;;;;;0.00;0.00;;;;;;;;;;5021421;28;20108;-82
2024/01/08 02:03:51;;;;;;;0.00;0.00;;;;;;;;;;5054741;28;20033;-82
2024/01/08 02:06:17;;;;;;;0.00;0.00;;;;;;;;;;5054784;28;20082;-82
2024/01/08 02:08:43;;;;;;;0.00;0.00;;;;;;;;;;5037727;28;20053;-82
2024/01/08 02:11:09;;;;;;;0.00;0.00;;;;;;;;;;5054561;28;20033;-83
2024/01/08 02:13:34;;;;;;;0.00;0.00;;;;;;;;;;5055389;28;20060;-81
2024/01/08 02:16:00;;;;;;;0.00;0.00;;;;;;;;;;5054912;28;20075;-82
2024/01/08 02:18:25;;;;;;;0.00;0.00;;;;;;;;;;5054663;28;20542;-81
2024/01/08 02:20:52;;;;;;;0.00;0.00;;;;;;;;;;5054856;28;20037;-80
2024/01/08 02:23:17;;;;;;;0.00;0.00;;;;;;;;;;5073530;28;20013;-81
2024/01/08 02:25:43;;;;;;;0.00;0.00;;;;;;;;;;5057395;28;20039;-82
2024/01/08 02:28:08;;;;;;;0.00;0.00;;;;;;;;;;5057285;28;20059;-82
2024/01/08 02:30:34;;;;;;;0.00;0.00;;;;;;;;;;5073956;28;20032;-81
2024/01/08 02:32:59;;;;;;;0.00;0.00;;;;;;;;;;5070709;28;20039;-81
2024/01/08 02:35:25;;;;;;;0.00;0.00;;;;;;;;;;5053274;28;20075;-81
2024/01/08 02:37:51;;;;;;;0.00;0.00;;;;;;;;;;5073422;28;20021;-83
2024/01/08 02:40:17;;;;;;;0.00;0.00;;;;;;;;;;5072613;28;20029;-82
2024/01/08 02:42:43;;;;;;;0.00;0.00;;;;;;;;;;5071074;28;20033;-82
2024/01/08 02:45:09;;;;;;;0.00;0.00;;;;;;;;;;5053905;28;20363;-82
2024/01/08 02:47:37;;;;;;;0.00;0.00;;;;;;;;;;5037085;28;20032;-81
2024/01/08 02:50:06;;;;;;;0.00;0.00;;;;;;;;;;5021586;28;20375;-82
2024/01/08 02:52:32;;;;;;;0.00;0.00;;;;;;;;;;5021313;28;20032;-80
2024/01/08 02:54:57;;;;;;;0.00;0.00;;;;;;;;;;5055120;28;20032;-82
2024/01/08 02:57:25;;;;;;;0.00;0.00;;;;;;;;;;5054602;28;20029;-82
2024/01/08 02:59:51;;;;;;;0.00;0.00;;;;;;;;;;5053774;28;20078;-81
2024/01/08 03:02:16;;;;;;;0.00;0.00;;;;;;;;;;5054864;28;20060;-82
2024/01/08 03:04:42;;;;;;;0.00;0.00;;;;;;;;;;5054781;28;20039;-82
2024/01/08 03:07:07;;;;;;;0.00;0.00;;;;;;;;;;5054875;28;20391;-81
2024/01/08 03:09:33;;;;;;;0.00;0.00;;;;;;;;;;5054739;28;20486;-81
2024/01/08 03:11:59;;;;;;;0.00;0.00;;;;;;;;;;5053378;28;20060;-82
2024/01/08 03:14:25;;;;;;;0.00;0.00;;;;;;;;;;5054500;28;20116;-83
2024/01/08 03:16:50;;;;;;;0.00;0.00;;;;;;;;;;5053366;28;20120;-81
2024/01/08 03:19:16;;;;;;;0.00;0.00;;;;;;;;;;5053201;28;20025;-82
2024/01/08 03:21:41;;;;;;;0.00;0.00;;;;;;;;;;5054257;28;20052;-82
2024/01/08 03:24:07;;;;;;;0.00;0.00;;;;;;;;;;5036625;28;20024;-83
2024/01/08 03:26:32;;;;;;;0.00;0.00;;;;;;;;;;5036242;28;20482;-83
2024/01/08 03:28:58;;;;;;;0.00;0.00;;;;;;;;;;5053086;28;20028;-83
2024/01/08 03:31:23;;;;;;;0.00;0.00;;;;;;;;;;5052916;28;20442;-83
2024/01/08 03:33:49;;;;;;;0.00;0.00;;;;;;;;;;5054352;28;20031;-83
2024/01/08 03:36:14;;;;;;;0.00;0.00;;;;;;;;;;5036848;28;20024;-84
2024/01/08 03:38:40;;;;;;;0.00;0.00;;;;;;;;;;5020463;28;20029;-83
2024/01/08 03:41:06;;;;;;;0.00;0.00;;;;;;;;;;5036100;28;20494;-83
2024/01/08 03:43:31;;;;;;;0.00;0.00;;;;;;;;;;5054037;28;20029;-84
2024/01/08 03:45:57;;;;;;;0.00;0.00;;;;;;;;;;5052792;28;20028;-83
2024/01/08 03:48:22;;;;;;;0.00;0.00;;;;;;;;;;5051888;28;20411;-83
2024/01/08 03:50:48;;;;;;;0.00;0.00;;;;;;;;;;5052585;28;20029;-83
2024/01/08 03:53:13;;;;;;;0.00;0.00;;;;;;;;;;5053799;28;20028;-83
2024/01/08 03:55:40;;;;;;;0.00;0.00;;;;;;;;;;5035764;28;20039;-83
2024/01/08 03:58:05;;;;;;;0.00;0.00;;;;;;;;;;5052650;28;20036;-83
2024/01/08 04:00:31;;;;;;;0.00;0.00;;;;;;;;;;5035999;28;20021;-83
2024/01/08 04:02:57;;;;;;;0.00;0.00;;;;;;;;;;5052477;28;20367;-83
2024/01/08 04:05:22;;;;;;;0.00;0.00;;;;;;;;;;5052781;28;20033;-83
2024/01/08 04:07:48;;;;;;;0.00;0.00;;;;;;;;;;5035621;28;20441;-83
2024/01/08 04:10:13;;;;;;;0.00;0.00;;;;;;;;;;5035329;28;20119;-83
2024/01/08 04:12:39;;;;;;;0.00;0.00;;;;;;;;;;5052412;28;20336;-83
2024/01/08 04:15:07;;;;;;;0.00;0.00;;;;;;;;;;5052412;28;20029;-82
2024/01/08 04:17:33;;;;;;;0.00;0.00;;;;;;;;;;5053417;28;20025;-83
2024/01/08 04:19:58;;;;;;;0.00;0.00;;;;;;;;;;5035981;28;20032;-83
2024/01/08 04:22:24;;;;;;;0.00;0.00;;;;;;;;;;5035696;28;20025;-83
2024/01/08 04:24:49;;;;;;;0.00;0.00;;;;;;;;;;5052045;28;20032;-82
2024/01/08 04:27:15;;;;;;;0.00;0.00;;;;;;;;;;5035683;28;20036;-83
2024/01/08 04:29:40;;;;;;;0.00;0.00;;;;;;;;;;5036044;28;20493;-83
2024/01/08 04:32:06;;;;;;;0.00;0.00;;;;;;;;;;5035582;28;20033;-83
2024/01/08 04:34:31;;;;;;;0.00;0.00;;;;;;;;;;5019573;28;20025;-82
2024/01/08 04:36:57;;;;;;;0.00;0.00;;;;;;;;;;5052174;28;20037;-83
2024/01/08 04:39:22;;;;;;;0.00;0.00;;;;;;;;;;5035520;28;20379;-82
2024/01/08 04:41:49;;;;;;;0.00;0.00;;;;;;;;;;5052265;28;20029;-83
2024/01/08 04:44:14;;;;;;;0.00;0.00;;;;;;;;;;5052094;28;20387;-83
2024/01/08 04:46:45;;;;;;;0.00;0.00;;;;;;;;;;5051954;28;20672;-82
2024/01/08 04:49:11;;;;;;;0.00;0.00;;;;;;;;;;5051706;28;20036;-82
2024/01/08 04:51:37;;;;;;;0.00;0.00;;;;;;;;;;5052008;28;20036;-82
2024/01/08 04:54:04;;;;;;;0.00;0.00;;;;;;;;;;5052983;28;20025;-82
2024/01/08 04:56:31;;;;;;;0.00;0.00;;;;;;;;;;5035785;28;20071;-82
2024/01/08 04:58:56;;;;;;;0.00;0.00;;;;;;;;;;5052088;28;20116;-81
2024/01/08 05:01:22;;;;;;;0.00;0.00;;;;;;;;;;5053290;28;20078;-82
2024/01/08 05:03:47;;;;;;;0.00;0.00;;;;;;;;;;5035616;28;20033;-82
2024/01/08 05:06:13;;;;;;;0.00;0.00;;;;;;;;;;5052092;28;20091;-82
2024/01/08 05:08:38;;;;;;;0.00;0.00;;;;;;;;;;5051591;28;20064;-83
2024/01/08 05:11:07;;;;;;;0.00;0.00;;;;;;;;;;5019029;28;20037;-82
2024/01/08 05:13:33;;;;;;;0.00;0.00;;;;;;;;;;5029561;28;20017;-82
2024/01/08 05:15:59;;;;;;;0.00;0.00;;;;;;;;;;5037900;28;20021;-82
2024/01/08 05:18:24;;;;;;;0.00;0.00;;;;;;;;;;5051398;28;20032;-83
2024/01/08 05:20:50;;;;;;;0.00;0.00;;;;;;;;;;5051218;28;20025;-83
2024/01/08 05:23:15;;;;;;;0.00;0.00;;;;;;;;;;5053596;28;20336;-83
2024/01/08 05:25:41;;;;;;;0.00;0.00;;;;;;;;;;5038749;28;20039;-83
2024/01/08 05:28:06;;;;;;;0.00;0.00;;;;;;;;;;5056137;28;20036;-83
2024/01/08 05:30:32;;;;;;;0.00;0.00;;;;;;;;;;5055126;28;20033;-82
2024/01/08 05:32:57;;;;;;;0.00;0.00;;;;;;;;;;5056283;28;20037;-83
2024/01/08 05:35:23;;;;;;;0.00;0.00;;;;;;;;;;5055887;28;20033;-82
2024/01/08 05:37:48;;;;;;;0.00;0.00;;;;;;;;;;5054637;28;20431;-82
2024/01/08 05:40:14;;;;;;;0.00;0.00;;;;;;;;;;5054554;28;20127;-82
2024/01/08 05:42:42;;;;;;;0.00;0.00;;;;;;;;;;5055552;28;20039;-81
2024/01/08 05:45:08;;;;;;;0.00;0.00;;;;;;;;;;5053145;28;20029;-82
2024/01/08 05:47:34;;;;;;;0.00;0.00;;;;;;;;;;5053279;28;20037;-81
2024/01/08 05:50:03;;;;;;;0.00;0.00;;;;;;;;;;5053158;28;20090;-79
2024/01/08 05:52:29;;;;;;;0.00;0.00;;;;;;;;;;5052056;28;20438;-80
2024/01/08 05:54:58;;;;;;;0.00;0.00;;;;;;;;;;5057341;28;20047;-79
2024/01/08 05:57:24;;;;;;;0.00;0.00;;;;;;;;;;5053887;28;20035;-81
2024/01/08 05:59:50;;;;;;;0.00;0.00;;;;;;;;;;5054211;28;20131;-81
2024/01/08 06:02:16;;;;;;;0.00;0.00;;;;;;;;;;5045443;28;20680;-78
2024/01/08 06:04:42;;;;;;;0.00;0.00;;;;;;;;;;5038711;28;20029;-80
2024/01/08 06:07:10;;;;;;;0.00;0.00;;;;;;;;;;5052549;28;20593;-80
2024/01/08 06:09:35;;;;;;;0.00;0.00;;;;;;;;;;5032352;28;20032;-80
2024/01/08 06:12:01;;;;;;;0.00;0.00;;;;;;;;;;5045579;28;20040;-79
2024/01/08 06:14:27;;;;;;;0.00;0.00;;;;;;;;;;5045350;28;20025;-78
2024/01/08 06:16:53;;;;;;;0.00;0.00;;;;;;;;;;5046175;28;20123;-80
2024/01/08 06:19:18;;;;;;;0.00;0.00;;;;;;;;;;5032430;28;20021;-80
2024/01/08 06:21:44;;;;;;;0.00;0.00;;;;;;;;;;5044128;28;20025;-79
2024/01/08 06:24:09;;;;;;;0.00;0.00;;;;;;;;;;5043826;28;20462;-79
2024/01/08 06:26:35;;;;;;;0.00;0.00;;;;;;;;;;5045816;28;20033;-79
2024/01/08 06:29:01;;;;;;;0.00;0.00;;;;;;;;;;5045576;28;20063;-78
2024/01/08 06:31:27;;;;;;;0.00;0.00;;;;;;;;;;5049702;28;20178;-79
2024/01/08 06:33:52;;;;;;;0.00;0.00;;;;;;;;;;5045919;28;20397;-79
2024/01/08 06:36:18;;;;;;;0.00;0.00;;;;;;;;;;5052332;28;20013;-82
2024/01/08 06:38:46;;;;;;;0.00;0.00;;;;;;;;;;5053552;28;20035;-80
2024/01/08 06:41:12;;;;;;;0.00;0.00;;;;;;;;;;5052949;28;20025;-80
2024/01/08 06:43:38;;;;;;;0.00;0.00;;;;;;;;;;5053553;28;20120;-81
2024/01/08 06:46:10;;;;;;;0.00;0.00;;;;;;;;;;5036393;28;20073;-83
2024/01/08 06:48:36;;;;;;;0.00;0.00;;;;;;;;;;5051946;28;20040;-85
2024/01/08 06:51:02;;;;;;;0.00;0.00;;;;;;;;;;5032963;28;20036;-83
2024/01/08 06:53:27;;;;;;;0.00;0.00;;;;;;;;;;5048418;28;20071;-82
2024/01/08 06:55:53;;;;;;;0.00;0.00;;;;;;;;;;5054507;28;20469;-86
2024/01/08 06:58:19;;;;;;;0.00;0.00;;;;;;;;;;5048306;28;20044;-85
2024/01/08 07:00:44;;;;;;;0.00;0.00;;;;;;;;;;5040371;28;20095;-83
2024/01/08 07:03:10;;;;;;;0.00;0.00;;;;;;;;;;5042338;28;20041;-83
2024/01/08 07:05:36;;;;;;;0.00;0.00;;;;;;;;;;5043244;28;20049;-79
2024/01/08 07:08:01;;;;;;;0.00;0.00;;;;;;;;;;5046922;28;20045;-80
2024/01/08 07:10:28;;;;;;;0.00;0.00;;;;;;;;;;5043981;28;20060;-81
2024/01/08 07:12:54;;;;;;;0.00;0.00;;;;;;;;;;5048088;28;20036;-81
2024/01/08 07:15:43;;;;;;;0.00;0.00;;;;;;;;;;5049119;28;20028;-79
2024/01/08 07:18:11;;;;;;;0.00;0.00;;;;;;;;;;5062697;28;20473;-79
2024/01/08 07:20:37;;;;;;;0.00;0.00;;;;;;;;;;5046186;28;20024;-79
2024/01/08 07:23:10;;;;;;;0.00;0.00;;;;;;;;;;5044643;28;20312;-81
2024/01/08 07:25:44;;;;;;;0.00;0.00;;;;;;;;;;5049625;28;20036;-81
2024/01/08 07:28:10;;;;;;;0.00;0.00;;;;;;;;;;5031859;28;20064;-81
2024/01/08 07:30:36;;;;;;;0.00;0.00;;;;;;;;;;5029374;28;20037;-81
2024/01/08 07:33:02;;;;;;;0.00;0.00;;;;;;;;;;5046552;28;20040;-79
2024/01/08 07:35:28;;;;;;;0.00;0.00;;;;;;;;;;5052185;28;20056;-80
2024/01/08 07:37:57;;;;;;;0.00;0.00;;;;;;;;;;5044509;28;20033;-81
2024/01/08 07:40:26;;;;;;;0.00;0.00;;;;;;;;;;5050576;28;20458;-81
2024/01/08 07:42:55;;;;;;;0.00;0.00;;;;;;;;;;5050336;28;20119;-81
2024/01/08 07:45:25;;;;;;;0.00;0.00;;;;;;;;;;5049165;28;20032;-80
2024/01/08 07:47:51;;;;;;;0.00;0.00;;;;;;;;;;5048092;28;20036;-82
2024/01/08 07:50:17;;;;;;;0.00;0.00;;;;;;;;;;5048147;28;20102;-81
2024/01/08 07:52:43;;;;;;;0.00;0.00;;;;;;;;;;5056667;28;20028;-81
2024/01/08 07:55:09;;;;;;;0.00;0.00;;;;;;;;;;5051386;28;20035;-83
2024/01/08 07:57:37;;;;;;;0.00;0.00;;;;;;;;;;5049957;28;20055;-81
2024/01/08 08:00:06;;;;;;;0.00;0.00;;;;;;;;;;5050271;28;20455;-82
2024/01/08 08:02:41;;;;;;;0.00;0.00;;;;;;;;;;5049666;28;20024;-84
2024/01/08 08:05:07;;;;;;;0.00;0.00;;;;;;;;;;5049705;28;20037;-83
2024/01/08 08:07:32;;;;;;;0.00;0.00;;;;;;;;;;5032697;28;20134;-84
2024/01/08 08:09:58;;;;;;;0.00;0.00;;;;;;;;;;5052037;28;20446;-85
2024/01/08 08:12:24;;;;;;;0.00;0.00;;;;;;;;;;5052356;28;20025;-82
2024/01/08 08:15:03;;;;;;;0.00;0.00;;;;;;;;;;5050140;28;20029;-80
2024/01/08 08:17:29;;;;;;;0.00;0.00;;;;;;;;;;5032320;28;20042;-85
2024/01/08 08:19:55;;;;;;;0.00;0.00;;;;;;;;;;5039589;28;20348;-85
2024/01/08 08:22:20;;;;;;;0.00;0.00;;;;;;;;;;5051759;28;20116;-85
2024/01/08 08:24:47;;;;;;;0.00;0.00;;;;;;;;;;5034514;28;20127;-84
2024/01/08 08:27:12;;;;;;;0.00;0.00;;;;;;;;;;5050440;28;20048;-82
2024/01/08 08:29:39;;;;;;;0.00;0.00;;;;;;;;;;5035887;28;20099;-86
2024/01/08 08:32:05;;;;;;;0.00;0.00;;;;;;;;;;5052400;28;20090;-83
2024/01/08 08:34:30;;;;;;;0.00;0.00;;;;;;;;;;5052351;28;20037;-89
2024/01/08 08:36:56;;;;;;;0.00;0.00;;;;;;;;;;5027283;28;20037;-83
2024/01/08 08:39:22;;;;;;;0.00;0.00;;;;;;;;;;5047255;28;20044;-84
2024/01/08 08:41:47;;;;;;;0.00;0.00;;;;;;;;;;5052156;28;20036;-85
2024/01/08 08:44:13;;;;;;;0.00;0.00;;;;;;;;;;5053771;28;20043;-86
2024/01/08 08:46:39;;;;;;;0.00;0.00;;;;;;;;;;5055439;28;20469;-87
2024/01/08 08:49:06;;;;;;;0.00;0.00;;;;;;;;;;5054401;28;20463;-85
2024/01/08 08:51:35;;;;;;;0.00;0.00;;;;;;;;;;5053853;28;20025;-85
2024/01/08 08:54:03;;;;;;;0.00;0.00;;;;;;;;;;5043266;28;20103;-86
2024/01/08 08:56:32;;;;;;;0.00;0.00;;;;;;;;;;5061547;28;20075;-85
2024/01/08 08:58:58;;;;;;;0.00;0.00;;;;;;;;;;5052998;28;20025;-85
2024/01/08 09:01:24;;;;;;;0.00;0.00;;;;;;;;;;5027109;28;20028;-83
2024/01/08 09:03:50;;;;;;;0.00;0.00;;;;;;;;;;5050550;28;20031;-85
2024/01/08 09:06:20;;;;;;;0.00;0.00;;;;;;;;;;5059228;22;20037;-81
2024/01/08 09:08:50;;;;;;;0.00;0.00;;;;;;;;;;5038400;28;20068;-87
2024/01/08 09:11:16;;;;;;;0.00;0.00;;;;;;;;;;5065690;28;20565;-88
2024/01/08 09:13:42;;;;;;;0.00;0.00;;;;;;;;;;5051398;28;20119;-86
2024/01/08 09:16:11;;;;;;;0.00;0.00;;;;;;;;;;5076377;28;20024;-86
2024/01/08 09:18:36;;;;;;;0.00;0.00;;;;;;;;;;5058244;28;20032;-87
2024/01/08 09:21:02;;;;;;;0.00;0.00;;;;;;;;;;5062083;28;20021;-86
2024/01/08 09:23:28;;;;;;;0.00;0.00;;;;;;;;;;5045620;28;20060;-87
2024/01/08 09:25:53;;;;;;;0.00;0.00;;;;;;;;;;5079212;28;20107;-89
2024/01/08 09:28:19;;;;;;;0.00;0.00;;;;;;;;;;5065458;28;20648;-89
2024/01/08 09:30:45;;;;;;;0.00;0.00;;;;;;;;;;5060426;28;20055;-87
2024/01/08 09:33:13;;;;;;;0.00;0.00;;;;;;;;;;5060495;28;20029;-87
2024/01/08 09:35:39;;;;;;;0.00;0.00;;;;;;;;;;5080522;28;20504;-86
2024/01/08 09:38:05;;;;;;;0.00;0.00;;;;;;;;;;5054947;28;20040;-86
2024/01/08 09:40:30;;;;;;;0.00;0.00;;;;;;;;;;5072934;28;20400;-84
2024/01/08 09:42:58;;;;;;;0.00;0.00;;;;;;;;;;5077694;28;20158;-85
2024/01/08 09:45:25;;;;;;;0.00;0.00;;;;;;;;;;5074739;28;20030;-84
2024/01/08 09:47:51;;;;;;;0.00;0.00;;;;;;;;;;5074297;28;20122;-84
2024/01/08 09:50:16;;;;;;;0.00;0.00;;;;;;;;;;5067905;28;20067;-88
2024/01/08 09:52:42;;;;;;;0.00;0.00;;;;;;;;;;5055780;28;20021;-84
2024/01/08 09:55:09;;;;;;;0.00;0.00;;;;;;;;;;5072962;28;20356;-86
2024/01/08 09:57:35;;;;;;;0.00;0.00;;;;;;;;;;5066711;28;20071;-81
2024/01/08 10:00:02;;;;;;;0.00;0.00;;;;;;;;;;5048139;28;20059;-79
2024/01/08 10:02:33;;;;;;;0.00;0.00;;;;;;;;;;5073353;28;20501;-82
2024/01/08 10:04:59;;;;;;;0.00;0.00;;;;;;;;;;5074436;28;20036;-82
2024/01/08 10:07:27;;;;;;;0.00;0.00;;;;;;;;;;5073260;28;20051;-87
2024/01/08 10:09:53;;;;;;;0.00;0.00;;;;;;;;;;5074820;28;20035;-87
2024/01/08 10:12:19;;;;;;;0.00;0.00;;;;;;;;;;5055788;28;20123;-86
2024/01/08 10:14:44;;;;;;;0.00;0.00;;;;;;;;;;5056445;28;20448;-87
2024/01/08 10:17:13;;;;;;;0.00;0.00;;;;;;;;;;5071554;28;20052;-84
2024/01/08 10:19:40;;;;;;;0.00;0.00;;;;;;;;;;5072500;28;20048;-82
2024/01/08 10:22:09;;;;;;;0.00;0.00;;;;;;;;;;5073543;28;20034;-86
2024/01/08 10:24:38;;;;;;;0.00;0.00;;;;;;;;;;5073979;28;20064;-85
2024/01/08 10:27:06;;;;;;;0.00;0.00;;;;;;;;;;5057225;28;20439;-85
2024/01/08 10:29:32;;;;;;;0.00;0.00;;;;;;;;;;5060985;28;20074;-84
2024/01/08 10:31:57;;;;;;;0.00;0.00;;;;;;;;;;5074215;28;20421;-87
2024/01/08 10:34:24;;;;;;;0.00;0.00;;;;;;;;;;5040801;28;20036;-84
2024/01/08 10:36:49;;;;;;;0.00;0.00;;;;;;;;;;5077433;28;20032;-83
2024/01/08 10:39:17;;;;;;;0.00;0.00;;;;;;;;;;5059792;28;20033;-85
2024/01/08 10:41:42;;;;;;;0.00;0.00;;;;;;;;;;5071083;28;20120;-85
2024/01/08 10:44:08;;;;;;;0.00;0.00;;;;;;;;;;5075661;28;20562;-87
2024/01/08 10:46:34;;;;;;;0.00;0.00;;;;;;;;;;5065624;28;20113;-82
2024/01/08 10:49:01;;;;;;;0.00;0.00;;;;;;;;;;5056998;28;20083;-82
2024/01/08 10:51:26;;;;;;;0.00;0.00;;;;;;;;;;5072632;28;20028;-84
2024/01/08 10:53:57;;;;;;;0.00;0.00;;;;;;;;;;5060535;28;20061;-81
2024/01/08 10:56:24;;;;;;;;;;;;;;;;;;5078972;28;20025;-81
2024/01/08 10:59:01;;;;;;;0.00;0.00;;;;;;;;;;5070923;28;19948;-81
2024/01/08 11:01:29;;;;;;;0.00;0.00;;;;;;;;;;5052121;28;20584;-81
2024/01/08 11:03:56;;;;;;;0.00;0.00;;;;;;;;;;5027349;28;20032;-79
2024/01/08 11:06:23;;;;;;;0.00;0.00;;;;;;;;;;5067126;28;20048;-79
2024/01/08 11:09:02;;;;;;;0.00;0.00;;;;;;;;;;5075545;28;20054;-80
2024/01/08 11:11:51;;;;;;;0.00;0.00;;;;;;;;;;5075012;28;20033;-83
2024/01/08 11:14:16;;;;;;;0.00;0.00;;;;;;;;;;5055755;28;20013;-84
2024/01/08 11:16:42;;;;;;;0.00;0.00;;;;;;;;;;5037668;28;20134;-83
2024/01/08 11:19:20;;;;;;;0.00;0.00;;;;;;;;;;5037937;28;20167;-86
2024/01/08 11:21:48;;;;;;;0.00;0.00;;;;;;;;;;5068530;28;20067;-87
2024/01/08 11:24:14;;;;;;;0.00;0.00;;;;;;;;;;5041643;28;20025;-87
2024/01/08 11:26:49;;;;;;;0.00;0.00;;;;;;;;;;5090140;28;20366;-86
2024/01/08 11:29:17;;;;;;;0.00;0.00;;;;;;;;;;5041286;28;20024;-86
2024/01/08 11:31:49;;;;;;;0.00;0.00;;;;;;;;;;5056048;28;20032;-86
2024/01/08 11:34:48;;;;;;;0.00;0.00;;;;;;;;;;5072521;28;20100;-86
2024/01/08 11:37:30;;;;;;;0.00;0.00;;;;;;;;;;5076856;22;20136;-86
2024/01/08 11:39:56;;;;;;;0.00;0.00;;;;;;;;;;5072809;28;20032;-87
2024/01/08 11:42:24;;;;;;;0.00;0.00;;;;;;;;;;5053876;28;20050;-88
2024/01/08 11:44:49;;;;;;;0.00;0.00;;;;;;;;;;5070606;28;20411;-87
2024/01/08 11:47:16;;;;;;;0.00;0.00;;;;;;;;;;5069514;28;20133;-87
2024/01/08 11:49:42;;;;;;;0.00;0.00;;;;;;;;;;5071543;28;20029;-85
2024/01/08 11:52:09;;;;;;;0.00;0.00;;;;;;;;;;5060882;28;20055;-87
2024/01/08 11:54:34;;;;;;;0.00;0.00;;;;;;;;;;5071250;28;20065;-86
2024/01/08 11:57:03;;;;;;;0.00;0.00;;;;;;;;;;5070960;28;20032;-87
2024/01/08 11:59:32;;;;;;;0.00;0.00;;;;;;;;;;5075448;28;20024;-88
2024/01/08 12:02:19;;;;;;;0.00;0.00;;;;;;;;;;5074467;28;20059;-87
2024/01/08 12:04:55;;;;;;;0.00;0.00;;;;;;;;;;5075317;28;20048;-87
2024/01/08 12:07:21;;;;;;;0.00;0.00;;;;;;;;;;5088757;28;20036;-86
2024/01/08 12:09:50;;;;;;;0.00;0.00;;;;;;;;;;5088746;28;20027;-87
2024/01/08 12:12:19;;;;;;;0.00;0.00;;;;;;;;;;5072528;28;20589;-87
2024/01/08 12:14:45;;;;;;;0.00;0.00;;;;;;;;;;5071170;28;20025;-87
2024/01/08 12:17:12;;;;;;;0.00;0.00;;;;;;;;;;5071474;28;20031;-87
2024/01/08 12:19:54;;;;;;;0.00;0.00;;;;;;;;;;5072410;28;20028;-87
2024/01/08 12:22:20;;;;;;;0.00;0.00;;;;;;;;;;5063480;28;20057;-85
2024/01/08 12:24:48;;;;;;;0.00;0.00;;;;;;;;;;5052153;28;20417;-88
2024/01/08 12:27:21;;;;;;;0.00;0.00;;;;;;;;;;5035289;28;20048;-85
2024/01/08 12:29:48;;;;;;;0.00;0.00;;;;;;;;;;5052361;28;20040;-87
2024/01/08 12:32:21;;;;;;;0.00;0.00;;;;;;;;;;5038756;28;20036;-87
2024/01/08 12:34:46;;;;;;;0.00;0.00;;;;;;;;;;5070187;28;20451;-87
2024/01/08 12:37:15;;;;;;;0.00;0.00;;;;;;;;;;5073826;28;20103;-87
2024/01/08 12:39:40;;;;;;;0.00;0.00;;;;;;;;;;5074976;28;20127;-87
2024/01/08 12:42:09;;;;;;;0.00;0.00;;;;;;;;;;5042257;28;20123;-87
2024/01/08 12:44:36;;;;;;;0.00;0.00;;;;;;;;;;5062318;28;20035;-88
2024/01/08 12:47:03;;;;;;;0.00;0.00;;;;;;;;;;5042472;28;20025;-87
2024/01/08 12:49:29;;;;;;;0.00;0.00;;;;;;;;;;5058351;28;20021;-88
2024/01/08 12:52:00;;;;;;;0.00;0.00;;;;;;;;;;5044515;28;20511;-88
2024/01/08 12:54:28;;;;;;;0.00;0.00;;;;;;;;;;5077670;28;20035;-89
2024/01/08 12:56:54;;;;;;;0.00;0.00;;;;;;;;;;5043886;28;20024;-89
2024/01/08 12:59:22;;;;;;;0.00;0.00;;;;;;;;;;5089954;28;20038;-87
2024/01/08 13:01:47;;;;;;;0.00;0.00;;;;;;;;;;5079469;28;20021;-88
2024/01/08 13:04:16;;;;;;;0.00;0.00;;;;;;;;;;5080057;28;20041;-85
2024/01/08 13:06:41;;;;;;;0.00;0.00;;;;;;;;;;5097261;28;20029;-84
2024/01/08 13:09:07;;;;;;;0.00;0.00;;;;;;;;;;5095119;28;20027;-84
2024/01/08 13:11:36;;;;;;;0.00;0.00;;;;;;;;;;5091365;28;20051;-85
2024/01/08 13:14:08;;;;;;;0.00;0.00;;;;;;;;;;5091009;28;20024;-84
2024/01/08 13:16:33;;;;;;;0.00;0.00;;;;;;;;;;5078667;28;20029;-83
2024/01/08 13:18:59;;;;;;;0.00;0.00;;;;;;;;;;5092968;28;20039;-86
2024/01/08 13:21:26;;;;;;;0.00;0.00;;;;;;;;;;5091222;28;20036;-86
2024/01/08 13:23:52;;;;;;;0.00;0.00;;;;;;;;;;5053901;28;20319;-85
2024/01/08 13:26:17;;;;;;;0.00;0.00;;;;;;;;;;5074675;28;20025;-83
2024/01/08 13:28:45;;;;;;;0.00;0.00;;;;;;;;;;5041467;28;20092;-85
2024/01/08 13:31:10;;;;;;;0.00;0.00;;;;;;;;;;5058736;28;20442;-85
2024/01/08 13:33:36;;;;;;;0.00;0.00;;;;;;;;;;5069638;28;20094;-85
2024/01/08 13:36:02;;;;;;;0.00;0.00;;;;;;;;;;5054505;28;20029;-84
2024/01/08 13:38:28;;;;;;;0.00;0.00;;;;;;;;;;5062351;28;20074;-86
2024/01/08 13:40:56;;;;;;;0.00;0.00;;;;;;;;;;5056564;28;20028;-86
2024/01/08 13:43:23;;;;;;;0.00;0.00;;;;;;;;;;5071412;28;20089;-88
2024/01/08 13:45:48;;;;;;;0.00;0.00;;;;;;;;;;5072816;28;20430;-87
2024/01/08 13:48:14;;;;;;;0.00;0.00;;;;;;;;;;5072122;28;20093;-89
2024/01/08 13:50:40;;;;;;;0.00;0.00;;;;;;;;;;5056586;28;20029;-84
2024/01/08 13:53:06;;;;;;;0.00;0.00;;;;;;;;;;5074698;28;20039;-88
2024/01/08 13:55:32;;;;;;;0.00;0.00;;;;;;;;;;5075839;28;20024;-86
2024/01/08 13:57:58;;;;;;;0.00;0.00;;;;;;;;;;5059283;28;20032;-87
2024/01/08 14:00:23;;;;;;;0.00;0.00;;;;;;;;;;5074723;28;20032;-88
2024/01/08 14:02:49;;;;;;;0.00;0.00;;;;;;;;;;5057624;28;20032;-87
2024/01/08 14:05:15;;;;;;;0.00;0.00;;;;;;;;;;5041439;28;20453;-89
2024/01/08 14:07:41;;;;;;;0.00;0.00;;;;;;;;;;5040656;28;20036;-92
2024/01/08 14:10:09;;;;;;;0.00;0.00;;;;;;;;;;5041741;28;20339;-90
2024/01/08 14:12:35;;;;;;;0.00;0.00;;;;;;;;;;5062628;28;20109;-90
2024/01/08 14:15:01;;;;;;;0.00;0.00;;;;;;;;;;5066055;28;20108;-89
2024/01/08 14:17:27;;;;;;;0.00;0.00;;;;;;;;;;5081339;28;20039;-90
2024/01/08 14:19:52;;;;;;;0.00;0.00;;;;;;;;;;5079766;28;20025;-89
2024/01/08 14:22:18;;;;;;;0.00;0.00;;;;;;;;;;5065020;28;20382;-88
2024/01/08 14:24:44;;;;;;;0.00;0.00;;;;;;;;;;5071586;28;20463;-89
2024/01/08 14:27:10;;;;;;;0.00;0.00;;;;;;;;;;5081834;28;20119;-91
2024/01/08 14:29:35;;;;;;;0.00;0.00;;;;;;;;;;5063699;28;20052;-89
2024/01/08 14:32:01;;;;;;;0.00;0.00;;;;;;;;;;5049567;28;20119;-92
2024/01/08 14:34:27;;;;;;;0.00;0.00;;;;;;;;;;5074936;28;20047;-90
2024/01/08 14:36:53;;;;;;;0.00;0.00;;;;;;;;;;5089080;28;20081;-90
2024/01/08 14:39:18;;;;;;;0.00;0.00;;;;;;;;;;5089068;28;20052;-88
2024/01/08 14:41:44;;;;;;;0.00;0.00;;;;;;;;;;5087978;28;20028;-85